Dinosaur, CO

12:41 AM MDT on October 23, 2014 (GMT -0600)
RAWS CALICO CO US | Change Station
CLOSE
Current Station
Personal Weather Station
Location: Dinosaur, CO
Elevation: 6720 ft
Nearby Weather Stations

Elev 6720 ft 40.38 °N, 108.52 °W | Updated 48 minutes ago

Clear
Clear
43 °F
Feels Like 43 °F
N
0
Wind Variable Wind from North
Gusts 2.0 mph

Today
High -- | Low -- °F
--% Chance of Precip.
Yesterday
High -- | Low -- °F
Precip. -- in
7:34 AM 6:23 PM
Waning Crescent, 0% visible
Pressure 30.12 in
Visibility 10.0 miles
Clouds Clear
Windchill 43 °F
Dew Point 26 °F
Humidity 51%
Rainfall 0.59 in
Snow Depth Not available.
UV 0 out of 12
Pollen 1.10 out of 12
Air Quality Not available.
Flu Activity Sporadic
METAR KEEO 230553Z AUTO 10005KT 10SM CLR 06/02 A3025 RMK AO2 SLP199 T00560022 10144 20039 50004

More Conditions Fewer Conditions

Pressure 30.12 in
Visibility 10.0 miles
Clouds Clear
Windchill 43 °F
Dew Point 26 °F
Humidity 51%
Rainfall 0.59 in
Snow Depth Not available.
UV 0 out of 12
Pollen 1.10 out of 12
Air Quality Not available.
Flu Activity Sporadic
METAR KEEO 230553Z AUTO 10005KT 10SM CLR 06/02 A3025 RMK AO2 SLP199 T00560022 10144 20039 50004

More Conditions Fewer Conditions

10-Day Weather Forecast

Almanac

Astronomy

Oct. 23, 2014 Rise Set
Actual Time 7:34 AM MDT 6:23 PM MDT
Civil Twilight 7:07 AM MDT 6:51 PM MDT
Nautical Twilight 6:35 AM MDT 7:23 PM MDT
Astronomical Twilight 6:03 AM MDT 7:54 PM MDT
Moon 7:17 AM MDT 6:27 PM MDT
Length of Visible Light 11h 44m
Length of Day
10h 48m
Tomorrow will be 2m 29s shorter.
Waning Crescent, 0% of the Moon is Illuminated
Today
Waning Crescent
Oct 23
New
Oct 30
First Quarter
Nov 6
Full
Nov 14
Last Quarter

Today's Extremes

State Highs State Lows

Community

WunderPhotos

Upload Photos

1,764,194 photos uploaded!

Nearby

Snow Depth

Station Depth Elevation
Burro Mountain 0 in 9400 ft
Trapper Lake 1 in 9700 ft
Crosho 0 in 9100 ft
Mesa Lakes 0 in 10000 ft
Bear RIver 0 in 9080 ft

Earthquake Activity

City Distance Mag. Time & Date
No recent earthquake activity has been reported nearby.
Minimum magnitude displayed is 2.5.

Coastal Water Temperatures

Place Temperature
No Stations Reporting

Nearby Weather Stations